الصفحة الرئيسية
METAR-TAF:

METAR-TAF

مطار :

إيلام, إيران

دائرة عرض: 33-35-09N, خط طول: 046-24-20E, ارتفاع: 1334 متر

مراقبة الطقس الحالي

تاريخ ووقت الإصدار 34 دقيقة قبل الساعة 16:00UTC
ريح 8 عقدة من الشمال
درجة الحرارة 34°درجة مئوية
الرطوبة 13%
ضغط 1013 hPa
الرؤية 10 كم أو أكثر
الغيوم لا تقل 1500 م ولا وجود لمزنة ركامية السحاب الأسود

METAR: OICI 201600Z 35008KT CAVOK 34/02 Q1012 A2991

زمن: 21:04 (16:34 UTC)

توقعات

تاريخ ووقت الإصدار 5ساعات و 34 دقيقة قبل الساعة 11:00UTC
التوقعات صالحة من20 الساعة 12 UTC إلى 21 الساعة 18 UTC
ريح 6 عقدة من الشمال الشرقي
الرؤية: 8000 متر
مؤقت
من 20 الساعة 06 UTC إلى 20 الساعة 15 UTC
ريح 20 عقدة من الشمال
الرؤية: 5000 متر
رمل
مؤقت
من 21 الساعة 10 UTC إلى 21 الساعة 18 UTC
ريح 18 عقدة من الشمال/الشمال الغربي تتزايد حتى 24 عقدة
الرؤية: 4000 متر
غيوم قليلة على ارتفاع 3500 قدم, مزنة ركامية.
غيوم متفرقة على ارتفاع 4000 قدم
غيوم متفرقة على ارتفاع 10000 قدم
رمل,

TAF: OICI 201100Z 2012/2118 05006KT 8000 NSC TEMPO 2006/2015 01020KT 5000 SA TEMPO 2110/2118 33018G24KT 4000 SA FEW035CB SCT040 SCT100

أرصاد الطقس والتوقعات من أكثر من 4000 مطار (تقارير الطقس للمطار METAR والتنبؤ بالطقس بالمطارTAF).

المحطات المتاحة هي النقط الصفراء والحمراء على الخريطة.

حرك المؤشر فوق النقطة لمعرفة اسم المحطة.

ثم انقر لمعرفة أرصاد وتوقعات الطقس.

لتغيير الخارطة: اضغط على الأزرار الخضراء مع رمز الصليب الأسود للتكبير. على الزر الأخضر مع شرطة للتصغير، أو على الأسهم الخضراء للخرائط المجاورة.


METAR-TAF: